Time;durP1;ratioP1;P1;durP2;ratioP2;P2;SDS_P1;SDS_P2;PMS_P1;PMS_P2;Temp;Humidity;BMP_temperature;BMP_pressure;BME280_temperature;BME280_humidity;BME280_pressure;Samples;Min_cycle;Max_cycle;Signal;HPM_P1;HPM_P2
2021/12/20 00:01:30;;;;;;;;;;;3.10;99.90;;;;;;5081158;28;19920;-70
2021/12/20 00:03:56;;;;;;;;;;;3.20;99.90;;;;;;5083509;28;19980;-70
2021/12/20 00:06:23;;;;;;;;;;;3.20;99.90;;;;;;5086268;28;19942;-70
2021/12/20 00:08:51;;;;;;;;;;;3.20;99.90;;;;;;5104463;28;19920;-70
2021/12/20 00:11:18;;;;;;;;;;;3.20;99.90;;;;;;5092106;28;19954;-70
2021/12/20 00:13:44;;;;;;;;;;;3.20;99.90;;;;;;5083848;28;19927;-70
2021/12/20 00:16:11;;;;;;;;;;;3.20;99.90;;;;;;5083719;28;20215;-70
2021/12/20 00:18:37;;;;;;;;;;;3.20;99.90;;;;;;5084364;28;19926;-70
2021/12/20 00:21:04;;;;;;;;;;;3.20;99.90;;;;;;5083941;28;19921;-70
2021/12/20 00:23:31;;;;;;;;;;;3.20;99.90;;;;;;5083980;28;19920;-70
2021/12/20 00:25:59;;;;;;;;;;;3.20;99.90;;;;;;5084185;28;19927;-70
2021/12/20 00:28:26;;;;;;;;;;;3.20;99.90;;;;;;5083983;28;19927;-70
2021/12/20 00:30:52;;;;;;;;;;;3.20;99.90;;;;;;5083979;28;19920;-70
2021/12/20 00:33:19;;;;;;;;;;;3.20;99.90;;;;;;5083708;28;19928;-70
2021/12/20 00:35:46;;;;;;;;;;;3.20;99.90;;;;;;5082823;28;20200;-70
2021/12/20 00:40:57;;;;;;;;;;;3.20;99.90;;;;;;5067667;28;20154;-70
2021/12/20 00:43:25;;;;;;;;;;;3.30;99.90;;;;;;5083696;28;19921;-70
2021/12/20 00:45:51;;;;;;;;;;;3.20;99.90;;;;;;5082850;28;19920;-70
2021/12/20 00:48:18;;;;;;;;;;;3.30;99.90;;;;;;5083670;28;19992;-70
2021/12/20 00:50:47;;;;;;;;;;;3.20;99.90;;;;;;5081408;28;19927;-70
2021/12/20 00:53:14;;;;;;;;;;;3.20;99.90;;;;;;5083287;28;19925;-70
2021/12/20 00:55:41;;;;;;;;;;;3.20;99.90;;;;;;5083188;28;19927;-70
2021/12/20 00:58:08;;;;;;;;;;;3.20;99.90;;;;;;5083180;28;19921;-71
2021/12/20 01:00:37;;;;;;;;;;;3.20;99.90;;;;;;5083362;28;19927;-70
2021/12/20 01:03:04;;;;;;;;;;;3.20;99.90;;;;;;5083512;28;20207;-70
2021/12/20 01:05:30;;;;;;;;;;;3.20;99.90;;;;;;5082352;28;20088;-70
2021/12/20 01:08:00;;;;;;;;;;;3.20;99.90;;;;;;5083305;28;19936;-70
2021/12/20 01:10:29;;;;;;;;;;;3.20;99.90;;;;;;5083505;28;19928;-70
2021/12/20 01:12:58;;;;;;;;;;;3.20;99.90;;;;;;5083731;28;19956;-70
2021/12/20 01:15:27;;;;;;;;;;;3.20;99.90;;;;;;5082516;28;19960;-70
2021/12/20 01:17:55;;;;;;;;;;;3.20;99.90;;;;;;5083097;28;19920;-70
2021/12/20 01:20:22;;;;;;;;;;;3.20;99.90;;;;;;5083249;28;20119;-70
2021/12/20 01:22:49;;;;;;;;;;;3.10;99.90;;;;;;5083465;28;20115;-69
2021/12/20 01:25:17;;;;;;;;;;;3.20;99.90;;;;;;5082615;28;19920;-70
2021/12/20 01:27:44;;;;;;;;;;;3.10;99.90;;;;;;5083381;28;20113;-70
2021/12/20 01:30:11;;;;;;;;;;;3.10;99.90;;;;;;5063408;28;19983;-70
2021/12/20 01:32:38;;;;;;;;;;;3.10;99.90;;;;;;5063575;28;19921;-70
2021/12/20 01:35:07;;;;;;;;;;;3.10;99.90;;;;;;5061665;28;20155;-70
2021/12/20 01:37:34;;;;;;;;;;;3.20;99.90;;;;;;5063052;28;19920;-69
2021/12/20 01:40:00;;;;;;;;;;;3.20;99.90;;;;;;5063222;28;19927;-71
2021/12/20 01:42:28;;;;;;;;;;;3.10;99.90;;;;;;5071812;28;19995;-70
2021/12/20 01:44:56;;;;;;;;;;;3.10;99.90;;;;;;5082452;28;19927;-70
2021/12/20 01:47:23;;;;;;;;;;;3.10;99.90;;;;;;5083248;28;19920;-70
2021/12/20 01:49:58;;;;;;;;;;;3.10;99.90;;;;;;5086901;28;19920;-70
2021/12/20 01:52:28;;;;;;;;;;;3.10;99.90;;;;;;5087273;28;19959;-70
2021/12/20 01:54:55;;;;;;;;;;;3.00;99.90;;;;;;5086252;28;20230;-70
2021/12/20 01:57:23;;;;;;;;;;;3.00;99.90;;;;;;5087044;28;19920;-71
2021/12/20 01:59:50;;;;;;;;;;;3.00;99.90;;;;;;5086807;28;19924;-70
2021/12/20 02:02:16;;;;;;;;;;;3.00;99.90;;;;;;5086694;28;19920;-72
2021/12/20 02:04:47;;;;;;;;;;;3.00;99.90;;;;;;5086021;28;19995;-70
2021/12/20 02:07:32;;;;;;;;;;;3.00;99.90;;;;;;5086144;28;19954;-70
2021/12/20 02:10:00;;;;;;;;;;;3.10;99.90;;;;;;5086709;28;19920;-70
2021/12/20 02:12:27;;;;;;;;;;;3.10;99.90;;;;;;5086539;28;19921;-70
2021/12/20 02:14:53;;;;;;;;;;;3.10;99.90;;;;;;5085419;28;19921;-70
2021/12/20 02:17:20;;;;;;;;;;;3.10;99.90;;;;;;5086612;28;19939;-70
2021/12/20 02:19:46;;;;;;;;;;;3.10;99.90;;;;;;5086431;28;19921;-70
2021/12/20 02:22:14;;;;;;;;;;;3.10;99.90;;;;;;5086362;28;19921;-70
2021/12/20 02:24:41;;;;;;;;;;;3.10;99.90;;;;;;5084960;28;20461;-70
2021/12/20 02:27:08;;;;;;;;;;;3.10;99.90;;;;;;5086506;28;19926;-70
2021/12/20 02:29:45;;;;;;;;;;;3.10;99.90;;;;;;5083516;28;19928;-70
2021/12/20 02:37:41;;;;;;;;;;;3.10;99.90;;;;;;5086038;28;19942;-70
2021/12/20 02:40:08;;;;;;;;;;;3.10;99.90;;;;;;5068816;28;20208;-70
2021/12/20 02:42:36;;;;;;;;;;;3.10;99.90;;;;;;5086203;28;19927;-71
2021/12/20 02:45:12;;;;;;;;;;;3.10;99.90;;;;;;5085083;28;19921;-70
2021/12/20 02:47:40;;;;;;;;;;;3.10;99.90;;;;;;5085874;28;19920;-70
2021/12/20 02:50:08;;;;;;;;;;;3.10;99.90;;;;;;5085704;28;19927;-70
2021/12/20 02:52:34;;;;;;;;;;;3.10;99.90;;;;;;5086200;28;19983;-70
2021/12/20 02:55:02;;;;;;;;;;;3.10;99.90;;;;;;5084884;28;19927;-70
2021/12/20 02:57:29;;;;;;;;;;;3.00;99.90;;;;;;5085905;28;19928;-70
2021/12/20 02:59:55;;;;;;;;;;;3.00;99.90;;;;;;5085339;28;19920;-70
2021/12/20 03:02:23;;;;;;;;;;;3.00;99.90;;;;;;5085625;28;20215;-70
2021/12/20 03:04:49;;;;;;;;;;;3.00;99.90;;;;;;5084339;28;19927;-70
2021/12/20 03:07:22;;;;;;;;;;;3.00;99.90;;;;;;5107044;22;19915;-73
2021/12/20 03:09:55;;;;;;;;;;;3.00;99.90;;;;;;5085594;28;19927;-72
2021/12/20 03:12:26;;;;;;;;;;;3.00;99.90;;;;;;5104372;28;19927;-75
2021/12/20 03:14:57;;;;;;;;;;;3.00;99.90;;;;;;5104473;28;19920;-73
2021/12/20 03:17:24;;;;;;;;;;;3.10;99.90;;;;;;5105322;28;19920;-72
2021/12/20 03:19:50;;;;;;;;;;;3.10;99.90;;;;;;5105410;28;19920;-73
2021/12/20 03:22:17;;;;;;;;;;;3.20;99.90;;;;;;5105537;28;19924;-73
2021/12/20 03:24:45;;;;;;;;;;;3.10;99.90;;;;;;5102851;28;19927;-73
2021/12/20 03:27:11;;;;;;;;;;;3.10;99.90;;;;;;5104670;28;19927;-72
2021/12/20 03:29:39;;;;;;;;;;;3.10;99.90;;;;;;5105114;28;20145;-73
2021/12/20 03:32:06;;;;;;;;;;;3.20;99.90;;;;;;5105374;28;19920;-72
2021/12/20 03:34:33;;;;;;;;;;;3.20;99.90;;;;;;5101418;28;19926;-73
2021/12/20 03:36:59;;;;;;;;;;;3.20;99.90;;;;;;5104684;28;19920;-73
2021/12/20 03:39:26;;;;;;;;;;;3.20;99.90;;;;;;5104627;28;19927;-73
2021/12/20 03:41:53;;;;;;;;;;;3.10;99.90;;;;;;5105142;28;19927;-72
2021/12/20 03:44:19;;;;;;;;;;;3.10;99.90;;;;;;5103881;28;19920;-72
2021/12/20 03:46:47;;;;;;;;;;;3.10;99.90;;;;;;5104726;28;19920;-73
2021/12/20 03:49:14;;;;;;;;;;;3.20;99.90;;;;;;5104454;28;20181;-73
2021/12/20 03:51:40;;;;;;;;;;;3.10;99.90;;;;;;5104879;28;19942;-71
2021/12/20 03:54:07;;;;;;;;;;;3.20;99.90;;;;;;5103426;28;19959;-73
2021/12/20 03:56:34;;;;;;;;;;;3.20;99.90;;;;;;5104124;28;19920;-73
2021/12/20 03:59:00;;;;;;;;;;;3.20;99.90;;;;;;5104413;28;19924;-71
2021/12/20 04:01:27;;;;;;;;;;;3.20;99.90;;;;;;5104501;28;19920;-72
2021/12/20 04:03:57;;;;;;;;;;;3.20;99.90;;;;;;5103729;28;19963;-73
2021/12/20 04:06:24;;;;;;;;;;;3.20;99.90;;;;;;5104418;28;19927;-73
2021/12/20 04:08:50;;;;;;;;;;;3.20;99.90;;;;;;5094198;28;20203;-73
2021/12/20 04:11:17;;;;;;;;;;;3.20;99.90;;;;;;5090014;28;19921;-73
2021/12/20 04:13:44;;;;;;;;;;;3.30;99.90;;;;;;5083610;28;19952;-74
2021/12/20 04:16:11;;;;;;;;;;;3.30;99.90;;;;;;5084150;28;19921;-73
2021/12/20 04:18:37;;;;;;;;;;;3.30;99.90;;;;;;5084126;28;19927;-72
2021/12/20 04:21:05;;;;;;;;;;;3.30;99.90;;;;;;5083923;28;19921;-73
2021/12/20 04:23:32;;;;;;;;;;;3.30;99.90;;;;;;5083546;28;19943;-72
2021/12/20 04:25:58;;;;;;;;;;;3.30;99.90;;;;;;5083961;28;19927;-73
2021/12/20 04:28:25;;;;;;;;;;;3.30;99.90;;;;;;5083957;28;19920;-73
2021/12/20 04:30:52;;;;;;;;;;;3.20;99.90;;;;;;5083947;28;19926;-72
2021/12/20 04:33:19;;;;;;;;;;;3.20;99.90;;;;;;5081151;28;20220;-72
2021/12/20 04:35:46;;;;;;;;;;;3.30;99.90;;;;;;5097361;28;19942;-72
2021/12/20 04:38:14;;;;;;;;;;;3.30;99.90;;;;;;5103702;28;19924;-73
2021/12/20 04:40:41;;;;;;;;;;;3.20;99.90;;;;;;5096351;28;19944;-72
2021/12/20 04:43:07;;;;;;;;;;;3.20;99.90;;;;;;5083629;28;19920;-73
2021/12/20 04:45:34;;;;;;;;;;;3.20;99.90;;;;;;5082739;28;19921;-71
2021/12/20 04:48:01;;;;;;;;;;;3.20;99.90;;;;;;5083724;28;19920;-73
2021/12/20 04:50:29;;;;;;;;;;;3.20;99.90;;;;;;5083479;28;19927;-73
2021/12/20 04:52:55;;;;;;;;;;;3.20;99.90;;;;;;5083315;28;20203;-73
2021/12/20 04:55:24;;;;;;;;;;;3.20;99.90;;;;;;5082747;28;19931;-73
2021/12/20 04:57:51;;;;;;;;;;;3.20;99.90;;;;;;5083301;28;19920;-73
2021/12/20 05:00:19;;;;;;;;;;;3.30;99.90;;;;;;5083452;28;19921;-73
2021/12/20 05:02:46;;;;;;;;;;;3.30;99.90;;;;;;5083497;28;19920;-73
2021/12/20 05:05:13;;;;;;;;;;;3.30;99.90;;;;;;5082838;28;19921;-73
2021/12/20 05:07:40;;;;;;;;;;;3.20;99.90;;;;;;5096252;28;19964;-73
2021/12/20 05:10:08;;;;;;;;;;;3.20;99.90;;;;;;5101156;28;19920;-73
2021/12/20 05:12:36;;;;;;;;;;;3.20;99.90;;;;;;5083423;28;20120;-73
2021/12/20 05:15:03;;;;;;;;;;;3.20;99.90;;;;;;5082719;28;19921;-72
2021/12/20 05:17:30;;;;;;;;;;;3.20;99.90;;;;;;5083014;28;20230;-73
2021/12/20 05:19:57;;;;;;;;;;;3.20;99.90;;;;;;5083428;28;19970;-72
2021/12/20 05:22:23;;;;;;;;;;;3.20;99.90;;;;;;5084812;28;19962;-72
2021/12/20 05:24:50;;;;;;;;;;;3.20;99.90;;;;;;5106346;28;19920;-72
2021/12/20 05:27:17;;;;;;;;;;;3.20;99.90;;;;;;5107750;28;19934;-72
2021/12/20 05:29:44;;;;;;;;;;;3.20;99.90;;;;;;5107259;28;19923;-72
2021/12/20 05:32:11;;;;;;;;;;;3.20;99.90;;;;;;5107450;28;19983;-71
2021/12/20 05:34:40;;;;;;;;;;;3.20;99.90;;;;;;5103843;28;19924;-71
2021/12/20 05:37:06;;;;;;;;;;;3.20;99.90;;;;;;5107041;28;20093;-72
2021/12/20 05:39:33;;;;;;;;;;;3.20;99.90;;;;;;5106616;28;19979;-71
2021/12/20 05:41:59;;;;;;;;;;;3.10;99.90;;;;;;5107177;28;19920;-71
2021/12/20 05:44:26;;;;;;;;;;;3.10;99.90;;;;;;5106254;28;19927;-72
2021/12/20 05:46:54;;;;;;;;;;;3.10;99.90;;;;;;5090399;28;19927;-72
2021/12/20 05:49:20;;;;;;;;;;;3.10;99.90;;;;;;5089626;28;19932;-72
2021/12/20 05:51:47;;;;;;;;;;;3.10;99.90;;;;;;5107400;28;19920;-72
2021/12/20 05:54:14;;;;;;;;;;;3.10;99.90;;;;;;5106516;28;19927;-72
2021/12/20 05:56:40;;;;;;;;;;;3.10;99.90;;;;;;5107037;28;19955;-72
2021/12/20 05:59:07;;;;;;;;;;;3.10;99.90;;;;;;5106872;28;19920;-72
2021/12/20 06:01:33;;;;;;;;;;;3.10;99.90;;;;;;5094868;28;19928;-72
2021/12/20 06:04:01;;;;;;;;;;;3.10;99.90;;;;;;5094839;28;19927;-71
2021/12/20 06:06:30;;;;;;;;;;;3.10;99.90;;;;;;5106484;28;20219;-73
2021/12/20 06:08:57;;;;;;;;;;;3.10;99.90;;;;;;5103713;28;19927;-73
2021/12/20 06:11:24;;;;;;;;;;;3.10;99.90;;;;;;5106943;28;20142;-73
2021/12/20 06:13:51;;;;;;;;;;;3.10;99.90;;;;;;5105849;28;20207;-72
2021/12/20 06:16:17;;;;;;;;;;;3.00;99.90;;;;;;5107224;28;19927;-73
2021/12/20 06:18:44;;;;;;;;;;;3.00;99.90;;;;;;5106463;28;19950;-73
2021/12/20 06:21:12;;;;;;;;;;;3.00;99.90;;;;;;5105328;28;19920;-73
2021/12/20 06:23:39;;;;;;;;;;;3.00;99.90;;;;;;5105328;28;20114;-72
2021/12/20 06:26:05;;;;;;;;;;;3.00;99.90;;;;;;5106585;28;19920;-71
2021/12/20 06:28:32;;;;;;;;;;;3.00;99.90;;;;;;5106575;28;19920;-72
2021/12/20 06:30:58;;;;;;;;;;;3.00;99.90;;;;;;5106438;28;19928;-72
2021/12/20 06:33:27;;;;;;;;;;;3.00;99.90;;;;;;5102872;28;19934;-72
2021/12/20 06:35:54;;;;;;;;;;;3.00;99.90;;;;;;5106094;28;19920;-72
2021/12/20 06:38:22;;;;;;;;;;;3.00;99.90;;;;;;5105856;28;19920;-73
2021/12/20 06:40:49;;;;;;;;;;;3.00;99.90;;;;;;5104193;28;19928;-73
2021/12/20 06:43:16;;;;;;;;;;;2.90;99.90;;;;;;5106066;28;19943;-73
2021/12/20 06:45:43;;;;;;;;;;;3.00;99.90;;;;;;5105855;28;19965;-72
2021/12/20 06:48:10;;;;;;;;;;;3.00;99.90;;;;;;5105521;28;20106;-74
2021/12/20 06:50:36;;;;;;;;;;;2.90;99.90;;;;;;5105872;28;20192;-74
2021/12/20 06:53:05;;;;;;;;;;;2.90;99.90;;;;;;5106238;28;19927;-74
2021/12/20 06:55:33;;;;;;;;;;;2.90;99.90;;;;;;5105713;28;19942;-73
2021/12/20 06:58:00;;;;;;;;;;;2.80;99.90;;;;;;5105909;28;19926;-75
2021/12/20 07:00:27;;;;;;;;;;;2.80;99.90;;;;;;5103743;28;19927;-73
2021/12/20 07:02:53;;;;;;;;;;;2.80;99.90;;;;;;5106031;28;19924;-73
2021/12/20 07:05:20;;;;;;;;;;;2.80;99.90;;;;;;5105193;28;19920;-73
2021/12/20 07:07:46;;;;;;;;;;;2.70;99.90;;;;;;5105366;28;19975;-73
2021/12/20 07:10:13;;;;;;;;;;;2.70;99.90;;;;;;5104831;28;19920;-73
2021/12/20 07:12:41;;;;;;;;;;;2.70;99.90;;;;;;5105844;28;19920;-73
2021/12/20 07:15:10;;;;;;;;;;;2.60;99.90;;;;;;5096810;28;19935;-73
2021/12/20 07:17:37;;;;;;;;;;;2.60;99.90;;;;;;5104267;28;20146;-74
2021/12/20 07:20:04;;;;;;;;;;;2.60;99.90;;;;;;5104905;28;19927;-73
2021/12/20 07:22:31;;;;;;;;;;;2.50;99.90;;;;;;5105325;28;19998;-73
2021/12/20 07:24:57;;;;;;;;;;;2.50;99.90;;;;;;5104349;28;20119;-74
2021/12/20 07:27:24;;;;;;;;;;;2.60;99.90;;;;;;5105426;28;19920;-73
2021/12/20 07:29:52;;;;;;;;;;;2.50;99.90;;;;;;5105105;28;19927;-73
2021/12/20 07:32:18;;;;;;;;;;;2.50;99.90;;;;;;5104506;28;19920;-72
2021/12/20 07:34:45;;;;;;;;;;;2.50;99.90;;;;;;5104333;28;19927;-73
2021/12/20 07:37:12;;;;;;;;;;;2.40;99.90;;;;;;5105418;28;19920;-73
2021/12/20 07:39:38;;;;;;;;;;;2.40;99.90;;;;;;5104419;28;19927;-73
2021/12/20 07:42:05;;;;;;;;;;;2.40;99.90;;;;;;5102771;28;19927;-73
2021/12/20 07:44:32;;;;;;;;;;;2.40;99.90;;;;;;5103607;28;19920;-74
2021/12/20 07:47:00;;;;;;;;;;;2.30;99.90;;;;;;5105063;28;19926;-74
2021/12/20 07:49:27;;;;;;;;;;;2.30;99.90;;;;;;5103877;28;19920;-73
2021/12/20 07:51:53;;;;;;;;;;;2.30;99.90;;;;;;5103310;28;19920;-73
2021/12/20 07:54:20;;;;;;;;;;;2.30;99.90;;;;;;5103567;28;19920;-73
2021/12/20 07:56:56;;;;;;;;;;;2.20;99.90;;;;;;5101991;28;19942;-73
2021/12/20 07:59:23;;;;;;;;;;;2.20;99.90;;;;;;5104970;28;20207;-73
2021/12/20 08:01:50;;;;;;;;;;;2.20;99.90;;;;;;5104879;28;19920;-72
2021/12/20 08:04:18;;;;;;;;;;;2.20;99.90;;;;;;5104342;28;19920;-72
2021/12/20 08:06:47;;;;;;;;;;;2.10;99.90;;;;;;5100897;28;19929;-73
2021/12/20 08:09:14;;;;;;;;;;;2.10;99.90;;;;;;5097091;28;19924;-72
2021/12/20 08:11:41;;;;;;;;;;;2.10;99.90;;;;;;5096220;28;19974;-73
2021/12/20 08:14:07;;;;;;;;;;;2.10;99.90;;;;;;5096693;28;19928;-72
2021/12/20 08:16:34;;;;;;;;;;;2.00;99.90;;;;;;5084367;28;19921;-73
2021/12/20 08:19:00;;;;;;;;;;;2.00;99.90;;;;;;5097944;28;19920;-73
2021/12/20 08:21:28;;;;;;;;;;;2.00;99.90;;;;;;5101211;28;19928;-73
2021/12/20 08:23:55;;;;;;;;;;;2.00;99.90;;;;;;5098064;28;19954;-73
2021/12/20 08:26:21;;;;;;;;;;;2.00;99.90;;;;;;5104377;28;20119;-73
2021/12/20 08:28:48;;;;;;;;;;;2.00;99.90;;;;;;5098036;28;19920;-72
2021/12/20 08:31:15;;;;;;;;;;;2.00;99.90;;;;;;5084764;28;19920;-73
2021/12/20 08:33:41;;;;;;;;;;;2.00;99.90;;;;;;5084045;28;19920;-72
2021/12/20 08:36:11;;;;;;;;;;;2.00;99.90;;;;;;5084115;28;19952;-73
2021/12/20 08:38:40;;;;;;;;;;;2.00;99.90;;;;;;5084075;28;19921;-73
2021/12/20 08:41:07;;;;;;;;;;;2.00;99.90;;;;;;5083968;28;19921;-73
2021/12/20 08:43:34;;;;;;;;;;;2.00;99.90;;;;;;5083515;28;19927;-72
2021/12/20 08:46:02;;;;;;;;;;;2.00;99.90;;;;;;5100246;28;19927;-70
2021/12/20 08:48:29;;;;;;;;;;;2.00;99.90;;;;;;5084004;28;19952;-72
2021/12/20 08:50:56;;;;;;;;;;;2.00;99.90;;;;;;5084149;28;19920;-73
2021/12/20 08:53:23;;;;;;;;;;;2.10;99.90;;;;;;5082844;28;20207;-72
2021/12/20 08:55:51;;;;;;;;;;;2.10;99.90;;;;;;5083120;28;19983;-73
2021/12/20 08:58:18;;;;;;;;;;;2.10;99.90;;;;;;5083433;28;19942;-73
2021/12/20 09:00:44;;;;;;;;;;;2.10;99.90;;;;;;5083906;28;19927;-73
2021/12/20 09:03:11;;;;;;;;;;;2.20;99.90;;;;;;5089233;28;19924;-72
2021/12/20 09:05:38;;;;;;;;;;;2.10;99.90;;;;;;5103276;28;19979;-72
2021/12/20 09:08:06;;;;;;;;;;;2.20;99.90;;;;;;5103021;28;19927;-74
2021/12/20 09:10:34;;;;;;;;;;;2.20;99.90;;;;;;5100825;28;20096;-74
2021/12/20 09:13:04;;;;;;;;;;;2.20;99.90;;;;;;5100403;28;19920;-74
2021/12/20 09:15:31;;;;;;;;;;;2.20;99.90;;;;;;5103299;28;19920;-73
2021/12/20 09:17:57;;;;;;;;;;;2.30;99.90;;;;;;5087585;28;19950;-73
2021/12/20 09:20:27;;;;;;;;;;;2.30;99.90;;;;;;5092231;28;19929;-74
2021/12/20 09:22:57;;;;;;;;;;;2.30;99.90;;;;;;5083444;28;19924;-72
2021/12/20 09:25:24;;;;;;;;;;;2.30;99.90;;;;;;5082754;28;19963;-74
2021/12/20 09:27:52;;;;;;;;;;;2.30;99.90;;;;;;5083413;28;19921;-74
2021/12/20 09:30:21;;;;;;;;;;;2.40;99.90;;;;;;5083427;28;20115;-74
2021/12/20 09:32:48;;;;;;;;;;;2.50;99.90;;;;;;5096340;28;19920;-74
2021/12/20 09:35:14;;;;;;;;;;;2.50;99.90;;;;;;5102151;28;19920;-74
2021/12/20 09:37:41;;;;;;;;;;;2.50;99.90;;;;;;5103016;28;19920;-74
2021/12/20 09:40:09;;;;;;;;;;;2.60;99.90;;;;;;5103081;28;19927;-74
2021/12/20 09:42:35;;;;;;;;;;;2.50;99.90;;;;;;5103344;28;19962;-74
2021/12/20 09:45:03;;;;;;;;;;;2.60;99.90;;;;;;5103085;28;19920;-74
2021/12/20 09:47:33;;;;;;;;;;;2.60;99.90;;;;;;5103915;28;19982;-74
2021/12/20 09:50:01;;;;;;;;;;;2.60;99.90;;;;;;5101830;28;19929;-73
2021/12/20 09:52:28;;;;;;;;;;;2.70;99.90;;;;;;5103033;28;19927;-74
2021/12/20 09:54:54;;;;;;;;;;;2.70;99.90;;;;;;5102831;28;19979;-74
2021/12/20 09:57:21;;;;;;;;;;;2.80;99.90;;;;;;5103298;28;19928;-73
2021/12/20 09:59:49;;;;;;;;;;;2.80;99.90;;;;;;5103218;28;20226;-73
2021/12/20 10:02:16;;;;;;;;;;;2.80;99.90;;;;;;5103267;28;19962;-74
2021/12/20 10:04:44;;;;;;;;;;;2.80;99.90;;;;;;5102383;28;19920;-73
2021/12/20 10:07:11;;;;;;;;;;;2.90;99.90;;;;;;5103120;28;19920;-72
2021/12/20 10:09:40;;;;;;;;;;;2.80;99.90;;;;;;5098372;28;19928;-73
2021/12/20 10:12:10;;;;;;;;;;;2.90;99.90;;;;;;5086984;28;19920;-74
2021/12/20 10:14:50;;;;;;;;;;;2.90;99.90;;;;;;5093240;28;19942;-74
2021/12/20 10:17:17;;;;;;;;;;;3.00;99.90;;;;;;5107205;28;19928;-74
2021/12/20 10:19:45;;;;;;;;;;;3.10;99.90;;;;;;5106976;28;19927;-73
2021/12/20 10:22:21;;;;;;;;;;;3.10;99.90;;;;;;5106131;28;20203;-74
2021/12/20 10:24:48;;;;;;;;;;;3.20;99.90;;;;;;5105954;28;19920;-74
2021/12/20 10:27:27;;;;;;;;;;;3.20;99.90;;;;;;5106794;28;19927;-74
2021/12/20 10:29:54;;;;;;;;;;;3.20;99.90;;;;;;5106152;28;20238;-74
2021/12/20 10:32:35;;;;;;;;;;;3.20;99.90;;;;;;5106922;28;19927;-74
2021/12/20 10:35:03;;;;;;;;;;;3.20;99.90;;;;;;5105762;28;19920;-74
2021/12/20 10:37:38;;;;;;;;;;;3.20;99.90;;;;;;5106683;28;19920;-74
2021/12/20 10:40:05;;;;;;;;;;;3.40;99.90;;;;;;5106859;28;19926;-73
2021/12/20 10:42:40;;;;;;;;;;;3.50;99.90;;;;;;5106357;28;19920;-73
2021/12/20 10:45:08;;;;;;;;;;;3.70;99.90;;;;;;5105955;28;19920;-74
2021/12/20 10:47:35;;;;;;;;;;;3.80;99.90;;;;;;5106309;28;19920;-74
2021/12/20 10:50:16;;;;;;;;;;;4.00;99.90;;;;;;5104818;28;19927;-73
2021/12/20 10:52:44;;;;;;;;;;;4.10;99.90;;;;;;5105781;28;20355;-74
2021/12/20 10:55:11;;;;;;;;;;;4.30;99.90;;;;;;5105477;28;19921;-73
2021/12/20 10:57:37;;;;;;;;;;;4.40;99.90;;;;;;5105997;28;19927;-74
2021/12/20 11:00:15;;;;;;;;;;;4.50;99.90;;;;;;5106160;28;19920;-73
2021/12/20 11:05:46;;;;;;;;;;;4.80;99.90;;;;;;5080922;28;19916;-74
2021/12/20 11:11:09;;;;;;;;;;;5.00;99.90;;;;;;5105703;28;19958;-73
2021/12/20 11:13:37;;;;;;;;;;;5.10;99.90;;;;;;5105235;28;19920;-74
2021/12/20 11:16:19;;;;;;;;;;;5.20;99.90;;;;;;5105321;28;19926;-73
2021/12/20 11:18:45;;;;;;;;;;;5.40;99.90;;;;;;5105158;28;19927;-74
2021/12/20 11:21:12;;;;;;;;;;;5.60;99.90;;;;;;5104990;28;19920;-74
2021/12/20 11:23:40;;;;;;;;;;;5.80;99.90;;;;;;5104522;28;20262;-73
2021/12/20 11:26:07;;;;;;;;;;;6.00;99.90;;;;;;5105508;28;19920;-73
2021/12/20 11:28:33;;;;;;;;;;;6.00;99.90;;;;;;5105480;28;19920;-73
2021/12/20 11:31:00;;;;;;;;;;;6.10;99.90;;;;;;5105296;28;19920;-74
2021/12/20 11:33:27;;;;;;;;;;;6.00;99.90;;;;;;5087054;28;19940;-71
2021/12/20 11:35:54;;;;;;;;;;;6.00;99.90;;;;;;5084163;28;20115;-74
2021/12/20 11:38:21;;;;;;;;;;;6.10;99.90;;;;;;5084456;28;19920;-74
2021/12/20 11:40:49;;;;;;;;;;;6.20;99.90;;;;;;5102999;28;19928;-72
2021/12/20 11:43:15;;;;;;;;;;;6.30;99.90;;;;;;5105026;28;19920;-73
2021/12/20 11:45:42;;;;;;;;;;;6.10;99.90;;;;;;5104136;28;19920;-74
2021/12/20 11:48:11;;;;;;;;;;;6.20;99.90;;;;;;5105028;28;19920;-74
2021/12/20 11:50:40;;;;;;;;;;;6.20;99.90;;;;;;5104788;28;19983;-73
2021/12/20 11:53:07;;;;;;;;;;;6.10;99.90;;;;;;5084514;28;19927;-74
2021/12/20 11:55:34;;;;;;;;;;;6.20;99.90;;;;;;5083939;28;19925;-73
2021/12/20 11:58:03;;;;;;;;;;;6.20;99.90;;;;;;5084594;28;19921;-74
2021/12/20 12:00:31;;;;;;;;;;;6.40;99.90;;;;;;5084776;28;20116;-73
2021/12/20 12:02:59;;;;;;;;;;;6.30;99.90;;;;;;5097212;28;19920;-74
2021/12/20 12:05:30;;;;;;;;;;;6.30;99.90;;;;;;5082367;28;20123;-74
2021/12/20 12:08:12;;;;;;;;;;;6.30;99.90;;;;;;5098349;28;20108;-74
2021/12/20 12:10:38;;;;;;;;;;;6.40;99.90;;;;;;5102865;28;19921;-74
2021/12/20 12:13:14;;;;;;;;;;;6.60;99.90;;;;;;5097991;28;19920;-74
2021/12/20 12:15:52;;;;;;;;;;;6.80;99.90;;;;;;5083513;28;19987;-74
2021/12/20 12:18:19;;;;;;;;;;;7.00;99.90;;;;;;5084116;28;19920;-74
2021/12/20 12:20:49;;;;;;;;;;;7.10;99.90;;;;;;5083958;28;20134;-73
2021/12/20 12:23:17;;;;;;;;;;;7.00;99.90;;;;;;5095082;28;19920;-71
2021/12/20 12:25:45;;;;;;;;;;;7.10;99.90;;;;;;5083410;28;19921;-71
2021/12/20 12:28:13;;;;;;;;;;;7.10;99.90;;;;;;5083300;28;20307;-72
2021/12/20 12:30:44;;;;;;;;;;;7.10;99.90;;;;;;5103044;28;19954;-71
2021/12/20 12:33:24;;;;;;;;;;;7.40;99.90;;;;;;5103602;28;19986;-70
2021/12/20 12:35:52;;;;;;;;;;;7.40;99.90;;;;;;5101990;28;19927;-71
2021/12/20 12:38:20;;;;;;;;;;;7.40;99.90;;;;;;5104210;28;19920;-71
2021/12/20 12:40:49;;;;;;;;;;;7.40;99.90;;;;;;5083582;28;19921;-72
2021/12/20 12:43:18;;;;;;;;;;;7.40;99.90;;;;;;5083798;28;19920;-71
2021/12/20 12:45:49;;;;;;;;;;;7.60;99.90;;;;;;5082847;28;20115;-71
2021/12/20 12:48:30;;;;;;;;;;;7.70;99.90;;;;;;5083611;28;19924;-71
2021/12/20 12:50:57;;;;;;;;;;;7.70;99.90;;;;;;5090253;28;19926;-71
2021/12/20 12:53:39;;;;;;;;;;;7.80;99.90;;;;;;5103143;28;20285;-70
2021/12/20 12:56:24;;;;;;;;;;;7.80;99.90;;;;;;5103672;28;19927;-69
2021/12/20 12:59:06;;;;;;;;;;;7.90;99.90;;;;;;5103541;28;19926;-71
2021/12/20 13:01:34;;;;;;;;;;;8.00;99.90;;;;;;5103294;28;20079;-71
2021/12/20 13:04:00;;;;;;;;;;;8.00;99.90;;;;;;5102608;28;19927;-70
2021/12/20 13:06:27;;;;;;;;;;;8.10;99.90;;;;;;5096254;28;19926;-74
2021/12/20 13:08:54;;;;;;;;;;;8.00;99.90;;;;;;5099206;28;19920;-73
2021/12/20 13:11:21;;;;;;;;;;;7.90;99.90;;;;;;5100950;28;19958;-72
2021/12/20 13:13:53;;;;;;;;;;;7.80;99.90;;;;;;5082571;28;19924;-72
2021/12/20 13:16:24;;;;;;;;;;;7.50;99.90;;;;;;5082508;28;19943;-72
2021/12/20 13:18:53;;;;;;;;;;;7.20;99.90;;;;;;5087097;28;20271;-72
2021/12/20 13:21:34;;;;;;;;;;;6.90;99.90;;;;;;5102616;28;19943;-71
2021/12/20 13:24:01;;;;;;;;;;;6.40;99.90;;;;;;5089104;28;19920;-72
2021/12/20 13:26:31;;;;;;;;;;;6.10;99.90;;;;;;5094168;28;19920;-73
2021/12/20 13:29:00;;;;;;;;;;;5.80;99.90;;;;;;5103631;28;19927;-73
2021/12/20 13:31:26;;;;;;;;;;;5.60;99.90;;;;;;5102382;28;20142;-71
2021/12/20 13:33:56;;;;;;;;;;;5.40;99.90;;;;;;5102763;28;19924;-72
2021/12/20 13:36:24;;;;;;;;;;;5.30;99.90;;;;;;5102915;28;19920;-73
2021/12/20 13:38:52;;;;;;;;;;;5.10;99.90;;;;;;5103110;28;19927;-73
2021/12/20 13:41:19;;;;;;;;;;;5.00;99.90;;;;;;5098319;28;20357;-72
2021/12/20 13:43:46;;;;;;;;;;;4.90;99.90;;;;;;5084941;28;19942;-73
2021/12/20 13:46:16;;;;;;;;;;;4.80;99.90;;;;;;5086347;28;19990;-72
2021/12/20 13:48:47;;;;;;;;;;;4.70;99.90;;;;;;5089195;28;19952;-72
2021/12/20 13:51:15;;;;;;;;;;;4.60;99.90;;;;;;5107346;28;20116;-73
2021/12/20 13:53:42;;;;;;;;;;;4.60;99.90;;;;;;5101523;28;19923;-72
2021/12/20 13:56:08;;;;;;;;;;;4.50;99.90;;;;;;5107120;28;19938;-73
2021/12/20 13:58:35;;;;;;;;;;;4.40;99.90;;;;;;5106292;28;19920;-72
2021/12/20 14:01:02;;;;;;;;;;;4.40;99.90;;;;;;5106253;28;19920;-73
2021/12/20 14:03:29;;;;;;;;;;;4.40;99.90;;;;;;5106179;28;20163;-72
2021/12/20 14:05:55;;;;;;;;;;;4.30;99.90;;;;;;5106585;28;19920;-72
2021/12/20 14:08:26;;;;;;;;;;;4.30;99.90;;;;;;5087511;28;19926;-72
2021/12/20 14:10:53;;;;;;;;;;;4.20;99.90;;;;;;5086631;28;19920;-72
2021/12/20 14:13:21;;;;;;;;;;;4.30;99.90;;;;;;5088241;28;19935;-71
2021/12/20 14:15:48;;;;;;;;;;;4.20;99.90;;;;;;5106138;28;19939;-72
2021/12/20 14:18:15;;;;;;;;;;;4.20;99.90;;;;;;5106296;28;20267;-73
2021/12/20 14:20:44;;;;;;;;;;;4.20;99.90;;;;;;5099701;28;19920;-72
2021/12/20 14:23:11;;;;;;;;;;;4.20;99.90;;;;;;5104576;28;20115;-72
2021/12/20 14:25:40;;;;;;;;;;;4.20;99.90;;;;;;5089939;28;19920;-73
2021/12/20 14:28:10;;;;;;;;;;;4.10;99.90;;;;;;5086366;28;19920;-72
2021/12/20 14:30:42;;;;;;;;;;;4.10;99.90;;;;;;5098528;28;19924;-75
2021/12/20 14:33:19;;;;;;;;;;;4.10;99.90;;;;;;5093237;28;19921;-73
2021/12/20 14:35:56;;;;;;;;;;;4.10;99.90;;;;;;5084622;28;20115;-71
2021/12/20 14:38:27;;;;;;;;;;;4.10;99.90;;;;;;5085266;28;19920;-72
2021/12/20 14:40:55;;;;;;;;;;;4.00;99.90;;;;;;5093326;28;19920;-73
2021/12/20 14:43:27;;;;;;;;;;;4.00;99.90;;;;;;5096711;28;19928;-73
2021/12/20 14:46:09;;;;;;;;;;;3.90;99.90;;;;;;5085399;28;19921;-73
2021/12/20 14:48:41;;;;;;;;;;;3.90;99.90;;;;;;5085974;28;19925;-74
2021/12/20 14:51:14;;;;;;;;;;;3.80;99.90;;;;;;5086140;28;19921;-73